sensor_id;sensor_type;location;lat;lon;timestamp;temperature;humidity
31369;DHT22;18004;48.416;10.066;2023-02-14T00:01:30;1.40;99.90
31369;DHT22;18004;48.416;10.066;2023-02-14T00:03:55;1.40;99.90
31369;DHT22;18004;48.416;10.066;2023-02-14T00:06:25;1.30;99.90
31369;DHT22;18004;48.416;10.066;2023-02-14T00:08:50;1.30;99.90
31369;DHT22;18004;48.416;10.066;2023-02-14T00:11:18;1.40;99.90
31369;DHT22;18004;48.416;10.066;2023-02-14T00:13:44;1.40;99.90
31369;DHT22;18004;48.416;10.066;2023-02-14T00:16:30;1.40;99.90
31369;DHT22;18004;48.416;10.066;2023-02-14T00:18:55;1.50;99.90
31369;DHT22;18004;48.416;10.066;2023-02-14T00:21:27;1.50;99.90
31369;DHT22;18004;48.416;10.066;2023-02-14T00:23:53;1.50;99.90
31369;DHT22;18004;48.416;10.066;2023-02-14T00:26:19;1.50;99.90
31369;DHT22;18004;48.416;10.066;2023-02-14T00:28:44;1.40;99.90
31369;DHT22;18004;48.416;10.066;2023-02-14T00:31:10;1.40;99.90
31369;DHT22;18004;48.416;10.066;2023-02-14T00:33:36;1.40;99.90
31369;DHT22;18004;48.416;10.066;2023-02-14T00:36:02;1.30;99.90
31369;DHT22;18004;48.416;10.066;2023-02-14T00:38:28;1.30;99.90
31369;DHT22;18004;48.416;10.066;2023-02-14T00:40:54;1.30;99.90
31369;DHT22;18004;48.416;10.066;2023-02-14T00:43:20;1.30;99.90
31369;DHT22;18004;48.416;10.066;2023-02-14T00:45:45;1.30;99.90
31369;DHT22;18004;48.416;10.066;2023-02-14T00:48:11;1.30;99.90
31369;DHT22;18004;48.416;10.066;2023-02-14T00:50:37;1.30;99.90
31369;DHT22;18004;48.416;10.066;2023-02-14T00:53:02;1.40;99.90
31369;DHT22;18004;48.416;10.066;2023-02-14T00:55:28;1.40;99.90
31369;DHT22;18004;48.416;10.066;2023-02-14T00:57:53;1.40;99.90
31369;DHT22;18004;48.416;10.066;2023-02-14T01:00:19;1.30;99.90
31369;DHT22;18004;48.416;10.066;2023-02-14T01:02:45;1.30;99.90
31369;DHT22;18004;48.416;10.066;2023-02-14T01:05:10;1.30;99.90
31369;DHT22;18004;48.416;10.066;2023-02-14T01:07:36;1.20;99.90
31369;DHT22;18004;48.416;10.066;2023-02-14T01:10:02;1.20;99.90
31369;DHT22;18004;48.416;10.066;2023-02-14T01:12:27;1.20;99.90
31369;DHT22;18004;48.416;10.066;2023-02-14T01:14:53;1.30;99.90
31369;DHT22;18004;48.416;10.066;2023-02-14T01:17:20;1.30;99.90
31369;DHT22;18004;48.416;10.066;2023-02-14T01:19:45;1.30;99.90
31369;DHT22;18004;48.416;10.066;2023-02-14T01:22:11;1.30;99.90
31369;DHT22;18004;48.416;10.066;2023-02-14T01:24:36;1.20;99.90
31369;DHT22;18004;48.416;10.066;2023-02-14T01:27:02;1.20;99.90
31369;DHT22;18004;48.416;10.066;2023-02-14T01:29:28;1.20;99.90
31369;DHT22;18004;48.416;10.066;2023-02-14T01:31:53;1.20;99.90
31369;DHT22;18004;48.416;10.066;2023-02-14T01:34:19;1.20;99.90
31369;DHT22;18004;48.416;10.066;2023-02-14T01:36:45;1.20;99.90
31369;DHT22;18004;48.416;10.066;2023-02-14T01:39:11;1.10;99.90
31369;DHT22;18004;48.416;10.066;2023-02-14T01:41:38;1.20;99.90
31369;DHT22;18004;48.416;10.066;2023-02-14T01:44:06;1.20;99.90
31369;DHT22;18004;48.416;10.066;2023-02-14T01:46:33;1.10;99.90
31369;DHT22;18004;48.416;10.066;2023-02-14T01:49:19;1.10;99.90
31369;DHT22;18004;48.416;10.066;2023-02-14T01:51:52;1.00;99.90
31369;DHT22;18004;48.416;10.066;2023-02-14T01:54:18;0.90;99.90
31369;DHT22;18004;48.416;10.066;2023-02-14T01:56:47;0.90;99.90
31369;DHT22;18004;48.416;10.066;2023-02-14T01:59:15;0.90;99.90
31369;DHT22;18004;48.416;10.066;2023-02-14T02:01:42;0.90;99.90
31369;DHT22;18004;48.416;10.066;2023-02-14T02:04:09;1.00;99.90
31369;DHT22;18004;48.416;10.066;2023-02-14T02:06:40;1.00;99.90
31369;DHT22;18004;48.416;10.066;2023-02-14T02:09:15;1.00;99.90
31369;DHT22;18004;48.416;10.066;2023-02-14T02:11:42;1.00;99.90
31369;DHT22;18004;48.416;10.066;2023-02-14T02:14:11;1.00;99.90
31369;DHT22;18004;48.416;10.066;2023-02-14T02:32:30;1.00;99.90
31369;DHT22;18004;48.416;10.066;2023-02-14T02:37:31;1.00;99.90
31369;DHT22;18004;48.416;10.066;2023-02-14T02:40:05;1.00;99.90
31369;DHT22;18004;48.416;10.066;2023-02-14T02:45:05;0.90;99.90
31369;DHT22;18004;48.416;10.066;2023-02-14T02:55:41;0.90;99.90
31369;DHT22;18004;48.416;10.066;2023-02-14T02:58:35;0.80;99.90
31369;DHT22;18004;48.416;10.066;2023-02-14T03:01:04;0.90;99.90
31369;DHT22;18004;48.416;10.066;2023-02-14T03:03:31;0.80;99.90
31369;DHT22;18004;48.416;10.066;2023-02-14T03:06:16;0.90;99.90
31369;DHT22;18004;48.416;10.066;2023-02-14T03:08:42;0.90;99.90
31369;DHT22;18004;48.416;10.066;2023-02-14T03:11:08;1.00;99.90
31369;DHT22;18004;48.416;10.066;2023-02-14T03:24:47;0.90;99.90
31369;DHT22;18004;48.416;10.066;2023-02-14T03:29:42;0.90;99.90
31369;DHT22;18004;48.416;10.066;2023-02-14T03:32:23;0.90;99.90
31369;DHT22;18004;48.416;10.066;2023-02-14T03:37:22;0.80;99.90
31369;DHT22;18004;48.416;10.066;2023-02-14T03:42:18;0.90;99.90
31369;DHT22;18004;48.416;10.066;2023-02-14T03:44:45;0.80;99.90
31369;DHT22;18004;48.416;10.066;2023-02-14T03:47:13;0.80;99.90
31369;DHT22;18004;48.416;10.066;2023-02-14T03:49:40;0.70;99.90
31369;DHT22;18004;48.416;10.066;2023-02-14T03:52:08;0.80;99.90
31369;DHT22;18004;48.416;10.066;2023-02-14T03:54:35;0.80;99.90
31369;DHT22;18004;48.416;10.066;2023-02-14T03:59:30;0.80;99.90
31369;DHT22;18004;48.416;10.066;2023-02-14T04:02:00;0.80;99.90
31369;DHT22;18004;48.416;10.066;2023-02-14T04:04:29;0.80;99.90
31369;DHT22;18004;48.416;10.066;2023-02-14T04:06:56;0.90;99.90
31369;DHT22;18004;48.416;10.066;2023-02-14T04:09:22;0.90;99.90
31369;DHT22;18004;48.416;10.066;2023-02-14T04:11:47;0.90;99.90
31369;DHT22;18004;48.416;10.066;2023-02-14T04:14:15;0.80;99.90
31369;DHT22;18004;48.416;10.066;2023-02-14T04:16:41;0.80;99.90
31369;DHT22;18004;48.416;10.066;2023-02-14T04:19:25;0.80;99.90
31369;DHT22;18004;48.416;10.066;2023-02-14T04:21:51;0.80;99.90
31369;DHT22;18004;48.416;10.066;2023-02-14T04:24:17;0.80;99.90
31369;DHT22;18004;48.416;10.066;2023-02-14T04:26:43;0.80;99.90
31369;DHT22;18004;48.416;10.066;2023-02-14T04:29:19;0.80;99.90
31369;DHT22;18004;48.416;10.066;2023-02-14T04:31:45;0.80;99.90
31369;DHT22;18004;48.416;10.066;2023-02-14T04:34:10;0.70;99.90
31369;DHT22;18004;48.416;10.066;2023-02-14T04:36:36;0.60;99.90
31369;DHT22;18004;48.416;10.066;2023-02-14T04:39:01;0.50;99.90
31369;DHT22;18004;48.416;10.066;2023-02-14T04:41:27;0.50;99.90
31369;DHT22;18004;48.416;10.066;2023-02-14T04:43:53;0.40;99.90
31369;DHT22;18004;48.416;10.066;2023-02-14T04:46:18;0.40;99.90
31369;DHT22;18004;48.416;10.066;2023-02-14T04:48:44;0.40;99.90
31369;DHT22;18004;48.416;10.066;2023-02-14T04:51:09;0.40;99.90
31369;DHT22;18004;48.416;10.066;2023-02-14T04:53:35;0.40;99.90
31369;DHT22;18004;48.416;10.066;2023-02-14T04:56:07;0.40;99.90
31369;DHT22;18004;48.416;10.066;2023-02-14T04:58:33;0.40;99.90
31369;DHT22;18004;48.416;10.066;2023-02-14T05:00:58;0.40;99.90
31369;DHT22;18004;48.416;10.066;2023-02-14T05:03:24;0.40;99.90
31369;DHT22;18004;48.416;10.066;2023-02-14T05:05:50;0.40;99.90
31369;DHT22;18004;48.416;10.066;2023-02-14T05:08:15;0.40;99.90
31369;DHT22;18004;48.416;10.066;2023-02-14T05:10:41;0.40;99.90
31369;DHT22;18004;48.416;10.066;2023-02-14T05:13:07;0.30;99.90
31369;DHT22;18004;48.416;10.066;2023-02-14T05:15:32;0.40;99.90
31369;DHT22;18004;48.416;10.066;2023-02-14T05:17:58;0.40;99.90
31369;DHT22;18004;48.416;10.066;2023-02-14T05:20:27;0.40;99.90
31369;DHT22;18004;48.416;10.066;2023-02-14T05:22:52;0.40;99.90
31369;DHT22;18004;48.416;10.066;2023-02-14T05:25:18;0.40;99.90
31369;DHT22;18004;48.416;10.066;2023-02-14T05:27:44;0.30;99.90
31369;DHT22;18004;48.416;10.066;2023-02-14T05:30:10;0.30;99.90
31369;DHT22;18004;48.416;10.066;2023-02-14T05:32:35;0.30;99.90
31369;DHT22;18004;48.416;10.066;2023-02-14T05:35:01;0.40;99.90
31369;DHT22;18004;48.416;10.066;2023-02-14T05:37:27;0.40;99.90
31369;DHT22;18004;48.416;10.066;2023-02-14T05:39:52;0.40;99.90
31369;DHT22;18004;48.416;10.066;2023-02-14T05:42:18;0.30;99.90
31369;DHT22;18004;48.416;10.066;2023-02-14T05:44:44;0.40;99.90
31369;DHT22;18004;48.416;10.066;2023-02-14T05:47:09;0.40;99.90
31369;DHT22;18004;48.416;10.066;2023-02-14T05:49:35;0.40;99.90
31369;DHT22;18004;48.416;10.066;2023-02-14T05:52:01;0.40;99.90
31369;DHT22;18004;48.416;10.066;2023-02-14T05:54:26;0.40;99.90
31369;DHT22;18004;48.416;10.066;2023-02-14T05:56:52;0.40;99.90
31369;DHT22;18004;48.416;10.066;2023-02-14T05:59:18;0.40;99.90
31369;DHT22;18004;48.416;10.066;2023-02-14T06:01:43;0.30;99.90
31369;DHT22;18004;48.416;10.066;2023-02-14T06:04:09;0.20;99.90
31369;DHT22;18004;48.416;10.066;2023-02-14T06:06:34;0.10;99.90
31369;DHT22;18004;48.416;10.066;2023-02-14T06:09:00;0.20;99.90
31369;DHT22;18004;48.416;10.066;2023-02-14T06:11:26;0.30;99.90
31369;DHT22;18004;48.416;10.066;2023-02-14T06:13:51;0.30;99.90
31369;DHT22;18004;48.416;10.066;2023-02-14T06:16:17;0.20;99.90
31369;DHT22;18004;48.416;10.066;2023-02-14T06:18:42;0.10;99.90
31369;DHT22;18004;48.416;10.066;2023-02-14T06:21:08;0.10;99.90
31369;DHT22;18004;48.416;10.066;2023-02-14T06:23:34;0.20;99.90
31369;DHT22;18004;48.416;10.066;2023-02-14T06:25:59;0.10;99.90
31369;DHT22;18004;48.416;10.066;2023-02-14T06:28:25;0.20;99.90
31369;DHT22;18004;48.416;10.066;2023-02-14T06:30:50;0.20;99.90
31369;DHT22;18004;48.416;10.066;2023-02-14T06:33:16;0.20;99.90
31369;DHT22;18004;48.416;10.066;2023-02-14T06:35:42;0.10;99.90
31369;DHT22;18004;48.416;10.066;2023-02-14T06:38:07;0.20;99.90
31369;DHT22;18004;48.416;10.066;2023-02-14T06:40:33;0.20;99.90
31369;DHT22;18004;48.416;10.066;2023-02-14T06:42:59;0.20;99.90
31369;DHT22;18004;48.416;10.066;2023-02-14T06:45:24;0.20;99.90
31369;DHT22;18004;48.416;10.066;2023-02-14T06:47:50;0.30;99.90
31369;DHT22;18004;48.416;10.066;2023-02-14T06:50:16;0.30;99.90
31369;DHT22;18004;48.416;10.066;2023-02-14T06:52:41;0.20;99.90
31369;DHT22;18004;48.416;10.066;2023-02-14T06:55:08;0.20;99.90
31369;DHT22;18004;48.416;10.066;2023-02-14T06:57:36;0.20;99.90
31369;DHT22;18004;48.416;10.066;2023-02-14T07:00:02;0.20;99.90
31369;DHT22;18004;48.416;10.066;2023-02-14T07:02:28;0.30;99.90
31369;DHT22;18004;48.416;10.066;2023-02-14T07:04:54;0.30;99.90
31369;DHT22;18004;48.416;10.066;2023-02-14T07:07:19;0.30;99.90
31369;DHT22;18004;48.416;10.066;2023-02-14T07:09:45;0.20;99.90
31369;DHT22;18004;48.416;10.066;2023-02-14T07:12:10;0.30;99.90
31369;DHT22;18004;48.416;10.066;2023-02-14T07:14:36;0.30;99.90
31369;DHT22;18004;48.416;10.066;2023-02-14T07:17:02;0.30;99.90
31369;DHT22;18004;48.416;10.066;2023-02-14T07:19:27;0.30;99.90
31369;DHT22;18004;48.416;10.066;2023-02-14T07:21:53;0.30;99.90
31369;DHT22;18004;48.416;10.066;2023-02-14T07:24:19;0.30;99.90
31369;DHT22;18004;48.416;10.066;2023-02-14T07:26:44;0.30;99.90
31369;DHT22;18004;48.416;10.066;2023-02-14T07:29:10;0.30;99.90
31369;DHT22;18004;48.416;10.066;2023-02-14T07:31:35;0.30;99.90
31369;DHT22;18004;48.416;10.066;2023-02-14T07:34:01;0.30;99.90
31369;DHT22;18004;48.416;10.066;2023-02-14T07:36:27;0.30;99.90
31369;DHT22;18004;48.416;10.066;2023-02-14T07:38:54;0.40;99.90
31369;DHT22;18004;48.416;10.066;2023-02-14T07:41:19;0.40;99.90
31369;DHT22;18004;48.416;10.066;2023-02-14T07:43:45;0.30;99.90
31369;DHT22;18004;48.416;10.066;2023-02-14T07:46:11;0.20;99.90
31369;DHT22;18004;48.416;10.066;2023-02-14T07:48:36;0.20;99.90
31369;DHT22;18004;48.416;10.066;2023-02-14T07:51:03;0.20;99.90
31369;DHT22;18004;48.416;10.066;2023-02-14T07:53:29;0.20;99.90
31369;DHT22;18004;48.416;10.066;2023-02-14T07:55:55;0.20;99.90
31369;DHT22;18004;48.416;10.066;2023-02-14T07:58:21;0.20;99.90
31369;DHT22;18004;48.416;10.066;2023-02-14T08:00:47;0.10;99.90
31369;DHT22;18004;48.416;10.066;2023-02-14T08:03:13;0.20;99.90
31369;DHT22;18004;48.416;10.066;2023-02-14T08:05:38;0.20;99.90
31369;DHT22;18004;48.416;10.066;2023-02-14T08:08:04;0.20;99.90
31369;DHT22;18004;48.416;10.066;2023-02-14T08:10:30;0.20;99.90
31369;DHT22;18004;48.416;10.066;2023-02-14T08:12:55;0.20;99.90
31369;DHT22;18004;48.416;10.066;2023-02-14T08:15:28;0.20;99.90
31369;DHT22;18004;48.416;10.066;2023-02-14T08:18:13;0.20;99.90
31369;DHT22;18004;48.416;10.066;2023-02-14T08:20:39;0.20;99.90
31369;DHT22;18004;48.416;10.066;2023-02-14T08:23:05;0.20;99.90
31369;DHT22;18004;48.416;10.066;2023-02-14T08:25:30;0.20;99.90
31369;DHT22;18004;48.416;10.066;2023-02-14T08:27:56;0.20;99.90
31369;DHT22;18004;48.416;10.066;2023-02-14T08:30:22;0.10;99.90
31369;DHT22;18004;48.416;10.066;2023-02-14T08:32:48;0.20;99.90
31369;DHT22;18004;48.416;10.066;2023-02-14T08:35:13;0.30;99.90
31369;DHT22;18004;48.416;10.066;2023-02-14T08:37:39;0.30;99.90
31369;DHT22;18004;48.416;10.066;2023-02-14T08:40:05;0.40;99.90
31369;DHT22;18004;48.416;10.066;2023-02-14T08:42:31;0.40;99.90
31369;DHT22;18004;48.416;10.066;2023-02-14T08:44:57;0.40;99.90
31369;DHT22;18004;48.416;10.066;2023-02-14T08:47:22;0.40;99.90
31369;DHT22;18004;48.416;10.066;2023-02-14T08:49:48;0.50;99.90
31369;DHT22;18004;48.416;10.066;2023-02-14T08:52:14;0.50;99.90
31369;DHT22;18004;48.416;10.066;2023-02-14T08:54:40;0.60;99.90
31369;DHT22;18004;48.416;10.066;2023-02-14T08:57:06;0.60;99.90
31369;DHT22;18004;48.416;10.066;2023-02-14T08:59:31;0.50;99.90
31369;DHT22;18004;48.416;10.066;2023-02-14T09:01:57;0.60;99.90
31369;DHT22;18004;48.416;10.066;2023-02-14T09:04:23;0.50;99.90
31369;DHT22;18004;48.416;10.066;2023-02-14T09:06:48;0.60;99.90
31369;DHT22;18004;48.416;10.066;2023-02-14T09:09:14;0.50;99.90
31369;DHT22;18004;48.416;10.066;2023-02-14T09:11:41;0.50;99.90
31369;DHT22;18004;48.416;10.066;2023-02-14T09:14:07;0.60;99.90
31369;DHT22;18004;48.416;10.066;2023-02-14T09:16:33;0.60;99.90
31369;DHT22;18004;48.416;10.066;2023-02-14T09:18:59;0.60;99.90
31369;DHT22;18004;48.416;10.066;2023-02-14T09:21:25;0.70;99.90
31369;DHT22;18004;48.416;10.066;2023-02-14T09:23:51;0.70;99.90
31369;DHT22;18004;48.416;10.066;2023-02-14T09:26:17;0.70;99.90
31369;DHT22;18004;48.416;10.066;2023-02-14T09:28:44;0.80;99.90
31369;DHT22;18004;48.416;10.066;2023-02-14T09:31:17;0.70;99.90
31369;DHT22;18004;48.416;10.066;2023-02-14T09:33:43;0.80;99.90
31369;DHT22;18004;48.416;10.066;2023-02-14T09:36:09;0.90;99.90
31369;DHT22;18004;48.416;10.066;2023-02-14T09:38:53;0.90;99.90
31369;DHT22;18004;48.416;10.066;2023-02-14T09:41:30;0.90;99.90
31369;DHT22;18004;48.416;10.066;2023-02-14T09:44:01;1.00;99.90
31369;DHT22;18004;48.416;10.066;2023-02-14T09:46:30;1.00;99.90
31369;DHT22;18004;48.416;10.066;2023-02-14T09:48:59;1.00;99.90
31369;DHT22;18004;48.416;10.066;2023-02-14T09:51:26;0.90;99.90
31369;DHT22;18004;48.416;10.066;2023-02-14T09:56:26;0.90;99.90
31369;DHT22;18004;48.416;10.066;2023-02-14T10:01:41;1.00;99.90
31369;DHT22;18004;48.416;10.066;2023-02-14T10:09:37;1.00;99.90
31369;DHT22;18004;48.416;10.066;2023-02-14T10:12:04;1.00;99.90
31369;DHT22;18004;48.416;10.066;2023-02-14T10:14:35;1.00;99.90
31369;DHT22;18004;48.416;10.066;2023-02-14T10:17:06;1.00;99.90
31369;DHT22;18004;48.416;10.066;2023-02-14T10:19:36;1.00;99.90
31369;DHT22;18004;48.416;10.066;2023-02-14T10:22:05;1.20;99.90
31369;DHT22;18004;48.416;10.066;2023-02-14T10:24:37;1.20;99.90
31369;DHT22;18004;48.416;10.066;2023-02-14T10:27:11;1.20;99.90
31369;DHT22;18004;48.416;10.066;2023-02-14T10:29:38;1.20;99.90
31369;DHT22;18004;48.416;10.066;2023-02-14T10:32:07;1.30;99.90
31369;DHT22;18004;48.416;10.066;2023-02-14T10:34:48;1.30;99.90
31369;DHT22;18004;48.416;10.066;2023-02-14T10:44:54;1.50;99.90
31369;DHT22;18004;48.416;10.066;2023-02-14T10:52:49;1.60;99.90
31369;DHT22;18004;48.416;10.066;2023-02-14T10:55:20;1.60;99.90
31369;DHT22;18004;48.416;10.066;2023-02-14T10:57:47;1.70;99.90
31369;DHT22;18004;48.416;10.066;2023-02-14T11:00:19;1.60;99.90
31369;DHT22;18004;48.416;10.066;2023-02-14T11:02:46;1.70;99.90
31369;DHT22;18004;48.416;10.066;2023-02-14T11:05:27;1.70;99.90
31369;DHT22;18004;48.416;10.066;2023-02-14T11:07:55;1.80;99.90
31369;DHT22;18004;48.416;10.066;2023-02-14T11:10:27;1.80;99.90
31369;DHT22;18004;48.416;10.066;2023-02-14T11:12:54;1.80;99.90
31369;DHT22;18004;48.416;10.066;2023-02-14T11:15:25;1.90;99.90
31369;DHT22;18004;48.416;10.066;2023-02-14T11:18:06;1.80;99.90
31369;DHT22;18004;48.416;10.066;2023-02-14T11:20:32;1.70;99.90
31369;DHT22;18004;48.416;10.066;2023-02-14T11:22:58;1.70;99.90
31369;DHT22;18004;48.416;10.066;2023-02-14T11:25:25;1.80;99.90
31369;DHT22;18004;48.416;10.066;2023-02-14T11:28:02;1.80;99.90
31369;DHT22;18004;48.416;10.066;2023-02-14T11:30:38;1.90;99.90
31369;DHT22;18004;48.416;10.066;2023-02-14T11:33:12;1.90;99.90
31369;DHT22;18004;48.416;10.066;2023-02-14T11:35:38;2.00;99.90
31369;DHT22;18004;48.416;10.066;2023-02-14T11:38:04;2.00;99.90
31369;DHT22;18004;48.416;10.066;2023-02-14T11:40:32;2.00;99.90
31369;DHT22;18004;48.416;10.066;2023-02-14T11:45:38;2.10;99.90
31369;DHT22;18004;48.416;10.066;2023-02-14T11:48:18;2.10;99.90
31369;DHT22;18004;48.416;10.066;2023-02-14T11:50:53;2.20;99.90
31369;DHT22;18004;48.416;10.066;2023-02-14T11:53:20;2.20;99.90
31369;DHT22;18004;48.416;10.066;2023-02-14T11:55:50;2.30;99.90
31369;DHT22;18004;48.416;10.066;2023-02-14T11:58:25;2.40;99.90
31369;DHT22;18004;48.416;10.066;2023-02-14T12:00:53;2.30;99.90
31369;DHT22;18004;48.416;10.066;2023-02-14T12:03:18;2.30;99.90
31369;DHT22;18004;48.416;10.066;2023-02-14T12:05:46;2.50;99.90
31369;DHT22;18004;48.416;10.066;2023-02-14T12:08:13;2.50;99.90
31369;DHT22;18004;48.416;10.066;2023-02-14T12:10:39;2.60;99.90
31369;DHT22;18004;48.416;10.066;2023-02-14T12:23:14;2.70;99.90
31369;DHT22;18004;48.416;10.066;2023-02-14T12:25:53;2.80;99.90
31369;DHT22;18004;48.416;10.066;2023-02-14T12:28:21;2.80;99.90
31369;DHT22;18004;48.416;10.066;2023-02-14T12:30:50;2.90;99.90
31369;DHT22;18004;48.416;10.066;2023-02-14T12:33:19;2.90;99.90
31369;DHT22;18004;48.416;10.066;2023-02-14T12:43:52;3.00;99.90
31369;DHT22;18004;48.416;10.066;2023-02-14T12:48:51;3.00;99.90
31369;DHT22;18004;48.416;10.066;2023-02-14T12:53:50;3.10;99.90
31369;DHT22;18004;48.416;10.066;2023-02-14T12:56:22;3.10;99.90
31369;DHT22;18004;48.416;10.066;2023-02-14T12:59:01;3.10;99.90
31369;DHT22;18004;48.416;10.066;2023-02-14T13:07:06;2.70;99.90
31369;DHT22;18004;48.416;10.066;2023-02-14T13:12:27;2.80;99.90
31369;DHT22;18004;48.416;10.066;2023-02-14T13:22:33;3.00;99.90
31369;DHT22;18004;48.416;10.066;2023-02-14T13:25:02;3.10;99.90
31369;DHT22;18004;48.416;10.066;2023-02-14T13:27:30;3.10;99.90
31369;DHT22;18004;48.416;10.066;2023-02-14T13:29:57;3.10;99.90
31369;DHT22;18004;48.416;10.066;2023-02-14T13:32:26;3.20;99.90
31369;DHT22;18004;48.416;10.066;2023-02-14T13:34:52;3.20;99.90
31369;DHT22;18004;48.416;10.066;2023-02-14T13:37:19;3.10;99.90
31369;DHT22;18004;48.416;10.066;2023-02-14T13:39:47;3.10;99.90
31369;DHT22;18004;48.416;10.066;2023-02-14T13:44:59;3.30;99.90
31369;DHT22;18004;48.416;10.066;2023-02-14T13:47:25;3.30;99.90
31369;DHT22;18004;48.416;10.066;2023-02-14T13:49:54;3.20;99.90
31369;DHT22;18004;48.416;10.066;2023-02-14T13:55:23;3.00;99.90
31369;DHT22;18004;48.416;10.066;2023-02-14T13:58:00;3.00;99.90
31369;DHT22;18004;48.416;10.066;2023-02-14T14:00:43;3.10;99.90
31369;DHT22;18004;48.416;10.066;2023-02-14T14:03:52;3.20;99.90
31369;DHT22;18004;48.416;10.066;2023-02-14T14:06:05;3.20;99.90
31369;DHT22;18004;48.416;10.066;2023-02-14T14:08:38;3.20;99.90
31369;DHT22;18004;48.416;10.066;2023-02-14T14:11:08;3.20;99.90
31369;DHT22;18004;48.416;10.066;2023-02-14T14:16:39;3.00;99.90
31369;DHT22;18004;48.416;10.066;2023-02-14T14:19:00;3.00;99.90
31369;DHT22;18004;48.416;10.066;2023-02-14T14:21:28;2.80;99.90
31369;DHT22;18004;48.416;10.066;2023-02-14T14:26:46;2.90;99.90
31369;DHT22;18004;48.416;10.066;2023-02-14T14:31:40;2.80;99.90
31369;DHT22;18004;48.416;10.066;2023-02-14T14:34:13;2.70;99.90
31369;DHT22;18004;48.416;10.066;2023-02-14T14:36:39;2.80;99.90
31369;DHT22;18004;48.416;10.066;2023-02-14T14:39:07;2.90;99.90
31369;DHT22;18004;48.416;10.066;2023-02-14T14:41:33;3.00;99.90
31369;DHT22;18004;48.416;10.066;2023-02-14T14:43:59;3.10;99.90
31369;DHT22;18004;48.416;10.066;2023-02-14T14:46:25;3.10;99.90
31369;DHT22;18004;48.416;10.066;2023-02-14T14:48:51;3.20;99.90
31369;DHT22;18004;48.416;10.066;2023-02-14T14:53:49;3.20;99.90
31369;DHT22;18004;48.416;10.066;2023-02-14T14:56:23;3.20;99.90
31369;DHT22;18004;48.416;10.066;2023-02-14T14:58:49;3.10;99.90
31369;DHT22;18004;48.416;10.066;2023-02-14T15:01:32;3.00;99.90
31369;DHT22;18004;48.416;10.066;2023-02-14T15:06:56;2.80;99.90
31369;DHT22;18004;48.416;10.066;2023-02-14T15:09:28;2.70;99.90
31369;DHT22;18004;48.416;10.066;2023-02-14T15:11:54;2.70;99.90
31369;DHT22;18004;48.416;10.066;2023-02-14T15:14:40;2.80;99.90
31369;DHT22;18004;48.416;10.066;2023-02-14T15:17:17;2.70;99.90
31369;DHT22;18004;48.416;10.066;2023-02-14T15:19:45;2.60;99.90
31369;DHT22;18004;48.416;10.066;2023-02-14T15:24:43;2.60;99.90
31369;DHT22;18004;48.416;10.066;2023-02-14T15:27:19;2.50;99.90
31369;DHT22;18004;48.416;10.066;2023-02-14T15:29:58;2.60;99.90
31369;DHT22;18004;48.416;10.066;2023-02-14T15:32:24;2.50;99.90
31369;DHT22;18004;48.416;10.066;2023-02-14T15:34:50;2.50;99.90
31369;DHT22;18004;48.416;10.066;2023-02-14T15:37:17;2.60;99.90
31369;DHT22;18004;48.416;10.066;2023-02-14T15:39:50;2.60;99.90
31369;DHT22;18004;48.416;10.066;2023-02-14T15:42:18;2.60;99.90
31369;DHT22;18004;48.416;10.066;2023-02-14T15:44:47;2.50;99.90
31369;DHT22;18004;48.416;10.066;2023-02-14T15:47:13;2.40;99.90
31369;DHT22;18004;48.416;10.066;2023-02-14T15:49:40;2.30;99.90
31369;DHT22;18004;48.416;10.066;2023-02-14T15:52:09;2.50;99.90
31369;DHT22;18004;48.416;10.066;2023-02-14T15:54:37;2.40;99.90
31369;DHT22;18004;48.416;10.066;2023-02-14T15:57:04;2.40;99.90
31369;DHT22;18004;48.416;10.066;2023-02-14T15:59:34;2.50;99.90
31369;DHT22;18004;48.416;10.066;2023-02-14T16:02:02;2.30;99.90
31369;DHT22;18004;48.416;10.066;2023-02-14T16:04:29;2.30;99.90
31369;DHT22;18004;48.416;10.066;2023-02-14T16:07:03;2.30;99.90
31369;DHT22;18004;48.416;10.066;2023-02-14T16:09:30;2.30;99.90
31369;DHT22;18004;48.416;10.066;2023-02-14T16:11:56;2.20;99.90
31369;DHT22;18004;48.416;10.066;2023-02-14T16:14:32;2.30;99.90
31369;DHT22;18004;48.416;10.066;2023-02-14T16:21:59;2.20;99.90
31369;DHT22;18004;48.416;10.066;2023-02-14T16:24:25;2.00;99.90
31369;DHT22;18004;48.416;10.066;2023-02-14T16:26:51;2.00;99.90
31369;DHT22;18004;48.416;10.066;2023-02-14T16:29:17;2.10;99.90
31369;DHT22;18004;48.416;10.066;2023-02-14T16:31:55;2.10;99.90
31369;DHT22;18004;48.416;10.066;2023-02-14T16:34:21;2.10;99.90
31369;DHT22;18004;48.416;10.066;2023-02-14T16:36:47;2.10;99.90
31369;DHT22;18004;48.416;10.066;2023-02-14T16:39:17;1.90;99.90
31369;DHT22;18004;48.416;10.066;2023-02-14T16:41:43;1.80;99.90
31369;DHT22;18004;48.416;10.066;2023-02-14T16:44:13;1.80;99.90
31369;DHT22;18004;48.416;10.066;2023-02-14T16:46:39;1.70;99.90
31369;DHT22;18004;48.416;10.066;2023-02-14T16:49:05;1.70;99.90
31369;DHT22;18004;48.416;10.066;2023-02-14T16:51:32;1.70;99.90
31369;DHT22;18004;48.416;10.066;2023-02-14T16:53:58;1.70;99.90
31369;DHT22;18004;48.416;10.066;2023-02-14T16:56:45;1.80;99.90
31369;DHT22;18004;48.416;10.066;2023-02-14T16:59:12;1.90;99.90
31369;DHT22;18004;48.416;10.066;2023-02-14T17:01:37;1.70;99.90
31369;DHT22;18004;48.416;10.066;2023-02-14T17:04:03;1.60;99.90
31369;DHT22;18004;48.416;10.066;2023-02-14T17:06:29;1.50;99.90
31369;DHT22;18004;48.416;10.066;2023-02-14T17:08:57;1.50;99.90
31369;DHT22;18004;48.416;10.066;2023-02-14T17:11:24;1.60;99.90
31369;DHT22;18004;48.416;10.066;2023-02-14T17:13:50;1.60;99.90
31369;DHT22;18004;48.416;10.066;2023-02-14T17:16:17;1.50;99.90
31369;DHT22;18004;48.416;10.066;2023-02-14T17:18:44;1.60;99.90
31369;DHT22;18004;48.416;10.066;2023-02-14T17:21:12;1.50;99.90
31369;DHT22;18004;48.416;10.066;2023-02-14T17:23:38;1.40;99.90
31369;DHT22;18004;48.416;10.066;2023-02-14T17:26:03;1.30;99.90
31369;DHT22;18004;48.416;10.066;2023-02-14T17:28:30;1.30;99.90
31369;DHT22;18004;48.416;10.066;2023-02-14T17:30:56;1.30;99.90
31369;DHT22;18004;48.416;10.066;2023-02-14T17:33:22;1.40;99.90
31369;DHT22;18004;48.416;10.066;2023-02-14T17:35:47;1.50;99.90
31369;DHT22;18004;48.416;10.066;2023-02-14T17:38:15;1.50;99.90
31369;DHT22;18004;48.416;10.066;2023-02-14T17:40:41;1.50;99.90
31369;DHT22;18004;48.416;10.066;2023-02-14T17:43:06;1.40;99.90
31369;DHT22;18004;48.416;10.066;2023-02-14T17:45:32;1.30;99.90
31369;DHT22;18004;48.416;10.066;2023-02-14T17:47:58;1.20;99.90
31369;DHT22;18004;48.416;10.066;2023-02-14T17:50:23;1.30;99.90
31369;DHT22;18004;48.416;10.066;2023-02-14T17:52:55;1.30;99.90
31369;DHT22;18004;48.416;10.066;2023-02-14T17:55:22;1.30;99.90
31369;DHT22;18004;48.416;10.066;2023-02-14T17:57:47;1.40;99.90